Etusivu
METAR-TAF:

METAR-TAF

Lentoasemat :

Gao, Mali

Leveyspiiri: 16-16N, Pituuspiiri: 000-03W, korkeus merenpinnasta: 265 m

METAR: puuttuu

Aika: 18:21 (18:21 UTC)

Sääennuste

Tämä raportti tehtiin 59 minuuttia sitten, kello 17.22 UTC
Ennuste voimassa 15. päivästä klo 18 UTC - 16. päivään klo 18 UTC
Tuuli 8 kn lounaasta
Näkyvyys: 8000 m
Muutamia pilviä 2600 ft:n korkeudessa
Ajoittain
15. päivästä klo 18 UTC - 15. päivään klo 22 UTC
Tuuli 15 kn idästä puuskistuen 35 kn:hen
Näkyvyys: 1200 m
pölymyrsky, ukkosmyrsky, sadetta
Todennäköisyys 40% :
Ajoittain
16. päivästä klo 03 UTC - 16. päivään klo 09 UTC
Tuuli 15 kn idästä puuskistuen 35 kn:hen
Näkyvyys: 2000 m
ukkosmyrsky, sadetta

TAF: GAGO 151722Z 1518/1618 22008KT 8000 FEW026 TEMPO 1518/1522 09015G35KT 1200 BLDU TSRA PROB40 TEMPO 1603/1609 08015G35KT 2000 TSRA

Säähavainnot ja -ennusteet yli 4000 lentoasemalta (METAR- ja TAF-raportit).

Käytössä olevat sääasemat on merkitty karttaan keltaisilla ja punaisilla pisteillä.

Aseta hiiri pisteen päälle nähdäksesi sääaseman nimen.

Klikkaa sitten nähdäksesi säähavainnot ja -ennusteet.

Kartan vaihtaminen: klikkaa mustalla rastilla varustettuja vihreitä pisteitä, niin voit zoomata sisään; viivalla varustettua vihreää pistettä, niin voit zoomata ulos tai vihreitä nuolia, niin pääset viereisille kartoille.


METAR-TAF: